sensor_id;sensor_type;location;lat;lon;timestamp;pressure;altitude;pressure_sealevel;temperature;humidity
61357;BME280;47227;46.752;23.576;2023-02-10T00:00:12;98271.09;;;-9.18;62.03
61357;BME280;47227;46.752;23.576;2023-02-10T00:03:01;98276.09;;;-9.17;62.19
61357;BME280;47227;46.752;23.576;2023-02-10T00:05:29;98278.89;;;-9.18;62.09
61357;BME280;47227;46.752;23.576;2023-02-10T00:07:58;98277.23;;;-9.26;63.09
61357;BME280;47227;46.752;23.576;2023-02-10T00:10:33;98273.39;;;-9.31;62.44
61357;BME280;47227;46.752;23.576;2023-02-10T00:13:01;98271.80;;;-9.33;62.25
61357;BME280;47227;46.752;23.576;2023-02-10T00:15:29;98269.86;;;-9.35;62.90
61357;BME280;47227;46.752;23.576;2023-02-10T00:17:57;98267.80;;;-9.34;62.40
61357;BME280;47227;46.752;23.576;2023-02-10T00:20:25;98267.42;;;-9.34;62.40
61357;BME280;47227;46.752;23.576;2023-02-10T00:22:53;98266.39;;;-9.37;62.55
61357;BME280;47227;46.752;23.576;2023-02-10T00:25:22;98261.89;;;-9.38;62.37
61357;BME280;47227;46.752;23.576;2023-02-10T00:27:50;98256.68;;;-9.39;62.39
61357;BME280;47227;46.752;23.576;2023-02-10T00:30:18;98256.95;;;-9.38;62.27
61357;BME280;47227;46.752;23.576;2023-02-10T00:32:47;98255.14;;;-9.39;62.15
61357;BME280;47227;46.752;23.576;2023-02-10T00:35:15;98252.81;;;-9.40;62.03
61357;BME280;47227;46.752;23.576;2023-02-10T00:37:43;98255.04;;;-9.40;61.91
61357;BME280;47227;46.752;23.576;2023-02-10T00:40:12;98255.15;;;-9.39;61.83
61357;BME280;47227;46.752;23.576;2023-02-10T00:42:40;98255.45;;;-9.38;62.24
61357;BME280;47227;46.752;23.576;2023-02-10T00:45:09;98255.25;;;-9.41;62.55
61357;BME280;47227;46.752;23.576;2023-02-10T00:47:38;98255.25;;;-9.52;62.80
61357;BME280;47227;46.752;23.576;2023-02-10T00:50:06;98252.95;;;-9.60;62.58
61357;BME280;47227;46.752;23.576;2023-02-10T00:52:34;98251.79;;;-9.64;62.39
61357;BME280;47227;46.752;23.576;2023-02-10T00:55:03;98247.02;;;-9.67;62.35
61357;BME280;47227;46.752;23.576;2023-02-10T00:57:32;98249.69;;;-9.70;62.43
61357;BME280;47227;46.752;23.576;2023-02-10T01:00:00;98247.80;;;-9.69;62.33
61357;BME280;47227;46.752;23.576;2023-02-10T01:02:30;98242.09;;;-9.71;62.28
61357;BME280;47227;46.752;23.576;2023-02-10T01:04:58;98242.41;;;-9.70;62.30
61357;BME280;47227;46.752;23.576;2023-02-10T01:07:27;98242.55;;;-9.69;62.13
61357;BME280;47227;46.752;23.576;2023-02-10T01:09:57;98241.73;;;-9.67;61.99
61357;BME280;47227;46.752;23.576;2023-02-10T01:12:25;98237.24;;;-9.65;61.73
61357;BME280;47227;46.752;23.576;2023-02-10T01:14:53;98234.82;;;-9.64;61.70
61357;BME280;47227;46.752;23.576;2023-02-10T01:17:21;98230.31;;;-9.61;61.83
61357;BME280;47227;46.752;23.576;2023-02-10T01:19:51;98231.23;;;-9.63;61.49
61357;BME280;47227;46.752;23.576;2023-02-10T01:22:19;98226.88;;;-9.64;61.42
61357;BME280;47227;46.752;23.576;2023-02-10T01:24:47;98224.21;;;-9.65;61.93
61357;BME280;47227;46.752;23.576;2023-02-10T01:27:15;98225.86;;;-9.64;61.75
61357;BME280;47227;46.752;23.576;2023-02-10T01:29:43;98223.17;;;-9.65;61.67
61357;BME280;47227;46.752;23.576;2023-02-10T01:32:11;98223.15;;;-9.64;62.33
61357;BME280;47227;46.752;23.576;2023-02-10T01:34:39;98220.08;;;-9.64;62.06
61357;BME280;47227;46.752;23.576;2023-02-10T01:37:07;98221.35;;;-9.62;61.85
61357;BME280;47227;46.752;23.576;2023-02-10T01:39:36;98220.14;;;-9.61;61.76
61357;BME280;47227;46.752;23.576;2023-02-10T01:42:44;98220.05;;;-9.63;61.38
61357;BME280;47227;46.752;23.576;2023-02-10T01:45:37;98215.20;;;-9.68;62.78
61357;BME280;47227;46.752;23.576;2023-02-10T01:48:29;98210.71;;;-9.77;62.13
61357;BME280;47227;46.752;23.576;2023-02-10T01:51:47;98212.58;;;-9.87;62.80
61357;BME280;47227;46.752;23.576;2023-02-10T01:54:34;98213.15;;;-9.92;62.38
61357;BME280;47227;46.752;23.576;2023-02-10T01:57:24;98214.47;;;-9.92;62.66
61357;BME280;47227;46.752;23.576;2023-02-10T02:00:20;98213.86;;;-9.89;62.73
61357;BME280;47227;46.752;23.576;2023-02-10T02:03:35;98215.56;;;-9.93;62.67
61357;BME280;47227;46.752;23.576;2023-02-10T02:06:47;98215.44;;;-9.94;62.43
61357;BME280;47227;46.752;23.576;2023-02-10T02:09:39;98220.35;;;-9.94;62.26
61357;BME280;47227;46.752;23.576;2023-02-10T02:12:55;98216.39;;;-9.93;62.39
61357;BME280;47227;46.752;23.576;2023-02-10T02:15:47;98213.09;;;-9.91;62.12
61357;BME280;47227;46.752;23.576;2023-02-10T02:18:54;98212.70;;;-9.90;61.97
61357;BME280;47227;46.752;23.576;2023-02-10T02:21:54;98214.41;;;-9.90;61.73
61357;BME280;47227;46.752;23.576;2023-02-10T02:25:15;98216.62;;;-9.91;61.92
61357;BME280;47227;46.752;23.576;2023-02-10T02:28:25;98219.40;;;-9.89;62.01
61357;BME280;47227;46.752;23.576;2023-02-10T02:31:40;98220.43;;;-9.89;61.78
61357;BME280;47227;46.752;23.576;2023-02-10T02:34:37;98217.24;;;-9.90;62.08
61357;BME280;47227;46.752;23.576;2023-02-10T02:37:52;98217.58;;;-9.86;61.91
61357;BME280;47227;46.752;23.576;2023-02-10T02:40:44;98211.64;;;-9.85;61.79
61357;BME280;47227;46.752;23.576;2023-02-10T02:43:12;98207.04;;;-9.85;61.68
61357;BME280;47227;46.752;23.576;2023-02-10T02:46:03;98209.41;;;-9.85;61.55
61357;BME280;47227;46.752;23.576;2023-02-10T02:48:53;98210.45;;;-9.85;61.58
61357;BME280;47227;46.752;23.576;2023-02-10T02:51:40;98206.73;;;-9.85;61.35
61357;BME280;47227;46.752;23.576;2023-02-10T02:54:31;98205.85;;;-9.85;61.46
61357;BME280;47227;46.752;23.576;2023-02-10T02:57:15;98210.90;;;-9.84;61.31
61357;BME280;47227;46.752;23.576;2023-02-10T02:59:57;98219.13;;;-9.86;61.09
61357;BME280;47227;46.752;23.576;2023-02-10T03:02:27;98223.33;;;-9.89;61.35
61357;BME280;47227;46.752;23.576;2023-02-10T03:04:59;98224.66;;;-9.92;61.14
61357;BME280;47227;46.752;23.576;2023-02-10T03:07:27;98229.89;;;-9.92;61.40
61357;BME280;47227;46.752;23.576;2023-02-10T03:09:55;98233.14;;;-9.93;61.38
61357;BME280;47227;46.752;23.576;2023-02-10T03:12:23;98234.58;;;-9.94;61.32
61357;BME280;47227;46.752;23.576;2023-02-10T03:14:51;98234.66;;;-9.93;61.30
61357;BME280;47227;46.752;23.576;2023-02-10T03:17:20;98235.30;;;-9.92;61.38
61357;BME280;47227;46.752;23.576;2023-02-10T03:19:48;98235.66;;;-9.92;61.31
61357;BME280;47227;46.752;23.576;2023-02-10T03:22:16;98236.59;;;-9.91;61.30
61357;BME280;47227;46.752;23.576;2023-02-10T03:24:44;98237.08;;;-9.90;61.26
61357;BME280;47227;46.752;23.576;2023-02-10T03:27:12;98238.42;;;-9.90;61.41
61357;BME280;47227;46.752;23.576;2023-02-10T03:29:40;98242.20;;;-9.95;61.23
61357;BME280;47227;46.752;23.576;2023-02-10T03:32:09;98240.94;;;-10.01;61.74
61357;BME280;47227;46.752;23.576;2023-02-10T03:34:37;98243.48;;;-10.08;61.56
61357;BME280;47227;46.752;23.576;2023-02-10T03:37:05;98238.40;;;-10.15;61.82
61357;BME280;47227;46.752;23.576;2023-02-10T03:39:33;98244.04;;;-10.16;62.09
61357;BME280;47227;46.752;23.576;2023-02-10T03:42:02;98247.61;;;-10.17;62.16
61357;BME280;47227;46.752;23.576;2023-02-10T03:44:30;98245.67;;;-10.19;62.31
61357;BME280;47227;46.752;23.576;2023-02-10T03:46:58;98242.65;;;-10.19;62.36
61357;BME280;47227;46.752;23.576;2023-02-10T03:49:27;98240.80;;;-10.20;61.91
61357;BME280;47227;46.752;23.576;2023-02-10T03:51:55;98242.43;;;-10.18;62.38
61357;BME280;47227;46.752;23.576;2023-02-10T03:54:23;98242.02;;;-10.17;62.42
61357;BME280;47227;46.752;23.576;2023-02-10T03:56:51;98240.89;;;-10.18;62.27
61357;BME280;47227;46.752;23.576;2023-02-10T03:59:19;98236.14;;;-10.17;62.05
61357;BME280;47227;46.752;23.576;2023-02-10T04:01:47;98236.57;;;-10.16;62.01
61357;BME280;47227;46.752;23.576;2023-02-10T04:04:16;98233.67;;;-10.15;61.99
61357;BME280;47227;46.752;23.576;2023-02-10T04:06:44;98233.27;;;-10.14;61.88
61357;BME280;47227;46.752;23.576;2023-02-10T04:09:15;98236.32;;;-10.14;62.22
61357;BME280;47227;46.752;23.576;2023-02-10T04:11:58;98234.46;;;-10.18;62.19
61357;BME280;47227;46.752;23.576;2023-02-10T04:14:46;98237.52;;;-10.18;61.88
61357;BME280;47227;46.752;23.576;2023-02-10T04:17:36;98236.84;;;-10.18;61.86
61357;BME280;47227;46.752;23.576;2023-02-10T04:20:25;98239.02;;;-10.18;62.35
61357;BME280;47227;46.752;23.576;2023-02-10T04:23:13;98244.48;;;-10.23;62.66
61357;BME280;47227;46.752;23.576;2023-02-10T04:25:51;98242.27;;;-10.33;63.57
61357;BME280;47227;46.752;23.576;2023-02-10T04:28:53;98245.13;;;-10.48;63.94
61357;BME280;47227;46.752;23.576;2023-02-10T04:31:23;98248.18;;;-10.64;64.34
61357;BME280;47227;46.752;23.576;2023-02-10T04:34:45;98248.28;;;-10.74;64.36
61357;BME280;47227;46.752;23.576;2023-02-10T04:37:20;98244.36;;;-10.73;63.53
61357;BME280;47227;46.752;23.576;2023-02-10T04:39:58;98240.02;;;-10.71;63.85
61357;BME280;47227;46.752;23.576;2023-02-10T04:42:30;98240.94;;;-10.68;63.52
61357;BME280;47227;46.752;23.576;2023-02-10T04:45:20;98238.48;;;-10.66;63.50
61357;BME280;47227;46.752;23.576;2023-02-10T04:47:48;98234.73;;;-10.66;63.02
61357;BME280;47227;46.752;23.576;2023-02-10T04:50:38;98239.45;;;-10.65;63.39
61357;BME280;47227;46.752;23.576;2023-02-10T04:54:00;98236.36;;;-10.64;63.40
61357;BME280;47227;46.752;23.576;2023-02-10T04:56:49;98234.64;;;-10.63;63.21
61357;BME280;47227;46.752;23.576;2023-02-10T04:59:26;98228.61;;;-10.60;63.24
61357;BME280;47227;46.752;23.576;2023-02-10T05:02:03;98228.88;;;-10.59;63.11
61357;BME280;47227;46.752;23.576;2023-02-10T05:05:04;98227.94;;;-10.57;63.00
61357;BME280;47227;46.752;23.576;2023-02-10T05:07:56;98222.35;;;-10.57;63.56
61357;BME280;47227;46.752;23.576;2023-02-10T05:10:53;98217.67;;;-10.54;63.31
61357;BME280;47227;46.752;23.576;2023-02-10T05:13:51;98219.23;;;-10.55;63.32
61357;BME280;47227;46.752;23.576;2023-02-10T05:17:00;98223.72;;;-10.53;63.41
61357;BME280;47227;46.752;23.576;2023-02-10T05:20:09;98222.64;;;-10.55;63.35
61357;BME280;47227;46.752;23.576;2023-02-10T05:22:57;98222.20;;;-10.57;63.09
61357;BME280;47227;46.752;23.576;2023-02-10T05:25:27;98221.98;;;-10.60;63.55
61357;BME280;47227;46.752;23.576;2023-02-10T05:28:02;98229.69;;;-10.62;63.41
61357;BME280;47227;46.752;23.576;2023-02-10T05:30:54;98227.96;;;-10.65;62.93
61357;BME280;47227;46.752;23.576;2023-02-10T05:33:32;98227.48;;;-10.69;63.30
61357;BME280;47227;46.752;23.576;2023-02-10T05:36:34;98233.67;;;-10.68;63.50
61357;BME280;47227;46.752;23.576;2023-02-10T05:39:18;98236.27;;;-10.66;63.42
61357;BME280;47227;46.752;23.576;2023-02-10T05:41:57;98238.58;;;-10.64;63.40
61357;BME280;47227;46.752;23.576;2023-02-10T05:44:50;98238.13;;;-10.62;63.23
61357;BME280;47227;46.752;23.576;2023-02-10T05:47:21;98239.74;;;-10.60;63.55
61357;BME280;47227;46.752;23.576;2023-02-10T05:50:12;98242.27;;;-10.59;63.44
61357;BME280;47227;46.752;23.576;2023-02-10T05:53:05;98249.28;;;-10.58;63.32
61357;BME280;47227;46.752;23.576;2023-02-10T05:55:38;98243.11;;;-10.56;63.06
61357;BME280;47227;46.752;23.576;2023-02-10T05:58:21;98245.58;;;-10.54;63.21
61357;BME280;47227;46.752;23.576;2023-02-10T06:00:53;98245.90;;;-10.50;63.02
61357;BME280;47227;46.752;23.576;2023-02-10T06:03:42;98244.81;;;-10.45;63.30
61357;BME280;47227;46.752;23.576;2023-02-10T06:06:12;98246.63;;;-10.40;63.08
61357;BME280;47227;46.752;23.576;2023-02-10T06:09:24;98248.53;;;-10.37;63.00
61357;BME280;47227;46.752;23.576;2023-02-10T06:11:58;98244.25;;;-10.36;62.68
61357;BME280;47227;46.752;23.576;2023-02-10T06:15:10;98247.55;;;-10.34;62.77
61357;BME280;47227;46.752;23.576;2023-02-10T06:18:04;98253.46;;;-10.30;62.24
61357;BME280;47227;46.752;23.576;2023-02-10T06:20:37;98255.78;;;-10.26;62.43
61357;BME280;47227;46.752;23.576;2023-02-10T06:23:30;98258.41;;;-10.20;62.40
61357;BME280;47227;46.752;23.576;2023-02-10T06:26:21;98258.66;;;-10.14;62.37
61357;BME280;47227;46.752;23.576;2023-02-10T06:28:55;98254.89;;;-10.10;62.16
61357;BME280;47227;46.752;23.576;2023-02-10T06:31:48;98261.90;;;-10.04;62.39
61357;BME280;47227;46.752;23.576;2023-02-10T06:34:33;98267.05;;;-9.94;62.57
61357;BME280;47227;46.752;23.576;2023-02-10T06:37:04;98267.98;;;-9.89;62.44
61357;BME280;47227;46.752;23.576;2023-02-10T06:39:57;98274.97;;;-9.83;62.42
61357;BME280;47227;46.752;23.576;2023-02-10T06:42:47;98279.33;;;-9.74;62.36
61357;BME280;47227;46.752;23.576;2023-02-10T06:45:45;98282.23;;;-9.64;62.45
61357;BME280;47227;46.752;23.576;2023-02-10T06:48:56;98284.63;;;-9.54;61.88
61357;BME280;47227;46.752;23.576;2023-02-10T06:51:53;98290.36;;;-9.46;61.81
61357;BME280;47227;46.752;23.576;2023-02-10T06:54:54;98292.14;;;-9.37;61.80
61357;BME280;47227;46.752;23.576;2023-02-10T06:57:28;98290.89;;;-9.32;61.75
61357;BME280;47227;46.752;23.576;2023-02-10T06:59:56;98292.26;;;-9.28;61.73
61357;BME280;47227;46.752;23.576;2023-02-10T07:02:27;98290.71;;;-9.25;61.86
61357;BME280;47227;46.752;23.576;2023-02-10T07:04:57;98295.54;;;-9.19;62.15
61357;BME280;47227;46.752;23.576;2023-02-10T07:07:26;98297.55;;;-9.16;62.00
61357;BME280;47227;46.752;23.576;2023-02-10T07:09:55;98294.06;;;-9.10;62.17
61357;BME280;47227;46.752;23.576;2023-02-10T07:12:40;98291.45;;;-9.01;62.33
61357;BME280;47227;46.752;23.576;2023-02-10T07:15:17;98291.60;;;-8.91;62.01
61357;BME280;47227;46.752;23.576;2023-02-10T07:17:51;98292.20;;;-8.79;62.11
61357;BME280;47227;46.752;23.576;2023-02-10T07:20:40;98286.94;;;-8.65;61.73
61357;BME280;47227;46.752;23.576;2023-02-10T07:23:35;98288.20;;;-8.50;61.37
61357;BME280;47227;46.752;23.576;2023-02-10T07:26:43;98290.72;;;-8.46;61.02
61357;BME280;47227;46.752;23.576;2023-02-10T07:29:12;98291.55;;;-8.42;60.45
61357;BME280;47227;46.752;23.576;2023-02-10T07:35:08;98292.58;;;-8.37;59.44
61357;BME280;47227;46.752;23.576;2023-02-10T07:37:39;98294.39;;;-8.39;59.07
61357;BME280;47227;46.752;23.576;2023-02-10T07:40:10;98297.17;;;-8.53;58.26
61357;BME280;47227;46.752;23.576;2023-02-10T07:42:46;98293.20;;;-8.42;58.75
61357;BME280;47227;46.752;23.576;2023-02-10T07:45:23;98294.22;;;-8.26;59.02
61357;BME280;47227;46.752;23.576;2023-02-10T07:48:01;98293.09;;;-8.11;59.48
61357;BME280;47227;46.752;23.576;2023-02-10T07:53:54;98300.78;;;-7.83;58.25
61357;BME280;47227;46.752;23.576;2023-02-10T07:56:23;98302.44;;;-7.72;58.65
61357;BME280;47227;46.752;23.576;2023-02-10T07:59:12;98303.11;;;-7.63;58.16
61357;BME280;47227;46.752;23.576;2023-02-10T08:02:01;98310.69;;;-7.52;58.22
61357;BME280;47227;46.752;23.576;2023-02-10T08:04:30;98307.48;;;-7.47;57.95
61357;BME280;47227;46.752;23.576;2023-02-10T08:06:59;98307.61;;;-7.40;58.24
61357;BME280;47227;46.752;23.576;2023-02-10T08:09:27;98302.70;;;-7.37;57.89
61357;BME280;47227;46.752;23.576;2023-02-10T08:11:56;98310.91;;;-7.32;58.19
61357;BME280;47227;46.752;23.576;2023-02-10T08:17:10;98312.73;;;-7.22;57.77
61357;BME280;47227;46.752;23.576;2023-02-10T08:19:42;98309.64;;;-7.18;57.71
61357;BME280;47227;46.752;23.576;2023-02-10T08:22:12;98302.21;;;-7.16;57.34
61357;BME280;47227;46.752;23.576;2023-02-10T08:24:43;98303.53;;;-7.12;57.62
61357;BME280;47227;46.752;23.576;2023-02-10T08:27:11;98311.70;;;-7.06;57.40
61357;BME280;47227;46.752;23.576;2023-02-10T08:29:39;98312.04;;;-7.00;57.40
61357;BME280;47227;46.752;23.576;2023-02-10T08:32:08;98309.06;;;-6.89;57.84
61357;BME280;47227;46.752;23.576;2023-02-10T08:34:48;98308.55;;;-6.75;57.73
61357;BME280;47227;46.752;23.576;2023-02-10T08:37:17;98308.06;;;-6.60;56.87
61357;BME280;47227;46.752;23.576;2023-02-10T08:43:15;98293.70;;;-6.25;56.46
61357;BME280;47227;46.752;23.576;2023-02-10T09:03:09;98287.39;;;-4.84;52.99
61357;BME280;47227;46.752;23.576;2023-02-10T09:05:45;98292.44;;;-4.72;52.81
61357;BME280;47227;46.752;23.576;2023-02-10T09:08:19;98290.46;;;-4.60;52.85
61357;BME280;47227;46.752;23.576;2023-02-10T09:10:47;98288.74;;;-4.52;52.72
61357;BME280;47227;46.752;23.576;2023-02-10T09:13:16;98286.55;;;-4.43;52.38
61357;BME280;47227;46.752;23.576;2023-02-10T09:15:44;98282.75;;;-4.35;51.57
61357;BME280;47227;46.752;23.576;2023-02-10T09:18:15;98281.17;;;-4.26;51.65
61357;BME280;47227;46.752;23.576;2023-02-10T09:20:46;98286.48;;;-4.14;51.65
61357;BME280;47227;46.752;23.576;2023-02-10T09:23:21;98288.00;;;-4.14;51.43
61357;BME280;47227;46.752;23.576;2023-02-10T09:26:20;98283.30;;;-4.35;52.30
61357;BME280;47227;46.752;23.576;2023-02-10T09:31:43;98290.23;;;-4.37;53.21
61357;BME280;47227;46.752;23.576;2023-02-10T09:34:14;98292.07;;;-4.46;53.68
61357;BME280;47227;46.752;23.576;2023-02-10T09:36:45;98287.79;;;-4.53;53.24
61357;BME280;47227;46.752;23.576;2023-02-10T09:39:14;98283.71;;;-4.51;53.45
61357;BME280;47227;46.752;23.576;2023-02-10T09:41:51;98284.11;;;-4.45;53.49
61357;BME280;47227;46.752;23.576;2023-02-10T09:44:26;98283.44;;;-4.37;53.60
61357;BME280;47227;46.752;23.576;2023-02-10T09:50:03;98277.64;;;-3.85;53.41
61357;BME280;47227;46.752;23.576;2023-02-10T09:55:29;98273.50;;;-3.26;53.34
61357;BME280;47227;46.752;23.576;2023-02-10T09:58:05;98270.52;;;-3.18;52.11
61357;BME280;47227;46.752;23.576;2023-02-10T10:00:42;98267.20;;;-3.08;52.05
61357;BME280;47227;46.752;23.576;2023-02-10T10:03:17;98263.05;;;-3.15;51.94
61357;BME280;47227;46.752;23.576;2023-02-10T10:06:10;98255.05;;;-3.06;52.08
61357;BME280;47227;46.752;23.576;2023-02-10T10:08:57;98250.05;;;-2.70;52.79
61357;BME280;47227;46.752;23.576;2023-02-10T10:11:46;98250.64;;;-2.44;52.13
61357;BME280;47227;46.752;23.576;2023-02-10T10:14:22;98246.69;;;-2.24;51.29
61357;BME280;47227;46.752;23.576;2023-02-10T10:17:09;98246.91;;;-2.15;50.24
61357;BME280;47227;46.752;23.576;2023-02-10T10:20:17;98249.73;;;-2.01;50.25
61357;BME280;47227;46.752;23.576;2023-02-10T10:22:57;98240.17;;;-1.77;50.92
61357;BME280;47227;46.752;23.576;2023-02-10T10:25:53;98233.71;;;-1.48;50.03
61357;BME280;47227;46.752;23.576;2023-02-10T10:28:36;98236.02;;;-1.16;49.59
61357;BME280;47227;46.752;23.576;2023-02-10T10:34:08;98226.54;;;-1.07;48.57
61357;BME280;47227;46.752;23.576;2023-02-10T10:36:43;98231.30;;;-0.97;48.46
61357;BME280;47227;46.752;23.576;2023-02-10T10:42:26;98228.48;;;-0.60;48.01
61357;BME280;47227;46.752;23.576;2023-02-10T10:45:05;98224.52;;;-0.58;47.69
61357;BME280;47227;46.752;23.576;2023-02-10T10:47:41;98217.55;;;-0.45;46.57
61357;BME280;47227;46.752;23.576;2023-02-10T10:50:20;98218.52;;;-0.38;45.37
61357;BME280;47227;46.752;23.576;2023-02-10T10:53:43;98219.27;;;-0.28;45.33
61357;BME280;47227;46.752;23.576;2023-02-10T10:56:33;98218.75;;;-0.00;45.42
61357;BME280;47227;46.752;23.576;2023-02-10T10:59:12;98219.98;;;-0.17;45.10
61357;BME280;47227;46.752;23.576;2023-02-10T11:01:47;98220.06;;;-0.06;45.60
61357;BME280;47227;46.752;23.576;2023-02-10T11:07:22;98214.21;;;0.18;44.81
61357;BME280;47227;46.752;23.576;2023-02-10T11:32:05;98193.60;;;2.72;41.40
61357;BME280;47227;46.752;23.576;2023-02-10T11:36:13;98195.28;;;2.99;39.50
61357;BME280;47227;46.752;23.576;2023-02-10T11:39:44;98186.48;;;3.41;39.81
61357;BME280;47227;46.752;23.576;2023-02-10T11:42:19;98184.10;;;3.54;38.45
61357;BME280;47227;46.752;23.576;2023-02-10T11:44:59;98185.85;;;3.86;39.49
61357;BME280;47227;46.752;23.576;2023-02-10T11:47:31;98187.09;;;4.23;38.95
61357;BME280;47227;46.752;23.576;2023-02-10T11:50:22;98183.94;;;3.79;37.34
61357;BME280;47227;46.752;23.576;2023-02-10T12:51:34;98155.66;;;6.02;32.02
61357;BME280;47227;46.752;23.576;2023-02-10T12:55:18;98155.21;;;5.87;32.32
61357;BME280;47227;46.752;23.576;2023-02-10T12:57:59;98148.56;;;6.27;31.88
61357;BME280;47227;46.752;23.576;2023-02-10T13:04:43;98146.08;;;7.79;31.24
61357;BME280;47227;46.752;23.576;2023-02-10T13:07:57;98146.73;;;7.72;29.96
61357;BME280;47227;46.752;23.576;2023-02-10T13:10:46;98148.79;;;7.22;30.37
61357;BME280;47227;46.752;23.576;2023-02-10T13:13:19;98153.97;;;6.97;30.73
61357;BME280;47227;46.752;23.576;2023-02-10T13:15:58;98148.55;;;7.03;30.65
61357;BME280;47227;46.752;23.576;2023-02-10T13:18:31;98150.08;;;7.08;30.27
61357;BME280;47227;46.752;23.576;2023-02-10T13:21:16;98149.80;;;7.05;31.00
61357;BME280;47227;46.752;23.576;2023-02-10T13:23:53;98143.52;;;7.76;30.53
61357;BME280;47227;46.752;23.576;2023-02-10T13:26:40;98140.00;;;7.74;30.11
61357;BME280;47227;46.752;23.576;2023-02-10T13:29:22;98137.30;;;8.66;29.63
61357;BME280;47227;46.752;23.576;2023-02-10T13:35:19;98129.66;;;9.14;28.02
61357;BME280;47227;46.752;23.576;2023-02-10T13:38:09;98134.15;;;9.37;28.82
61357;BME280;47227;46.752;23.576;2023-02-10T13:40:49;98140.39;;;9.52;28.47
61357;BME280;47227;46.752;23.576;2023-02-10T13:43:27;98143.77;;;9.99;27.89
61357;BME280;47227;46.752;23.576;2023-02-10T13:46:02;98141.27;;;10.13;27.37
61357;BME280;47227;46.752;23.576;2023-02-10T13:48:59;98142.27;;;10.32;26.93
61357;BME280;47227;46.752;23.576;2023-02-10T13:51:34;98143.64;;;10.80;26.45
61357;BME280;47227;46.752;23.576;2023-02-10T13:54:28;98143.41;;;10.75;26.58
61357;BME280;47227;46.752;23.576;2023-02-10T14:01:28;98141.98;;;11.12;26.71
61357;BME280;47227;46.752;23.576;2023-02-10T14:08:15;98138.95;;;11.81;26.02
61357;BME280;47227;46.752;23.576;2023-02-10T14:14:32;98142.30;;;11.42;25.32
61357;BME280;47227;46.752;23.576;2023-02-10T14:17:21;98147.30;;;11.31;25.38
61357;BME280;47227;46.752;23.576;2023-02-10T14:19:59;98149.52;;;10.50;26.00
61357;BME280;47227;46.752;23.576;2023-02-10T14:22:36;98149.70;;;10.61;26.21
61357;BME280;47227;46.752;23.576;2023-02-10T14:25:19;98153.09;;;10.88;26.29
61357;BME280;47227;46.752;23.576;2023-02-10T14:27:53;98155.75;;;10.69;26.21
61357;BME280;47227;46.752;23.576;2023-02-10T14:30:28;98157.04;;;10.23;26.45
61357;BME280;47227;46.752;23.576;2023-02-10T14:32:59;98158.77;;;10.35;26.10
61357;BME280;47227;46.752;23.576;2023-02-10T14:35:27;98156.39;;;10.29;26.59
61357;BME280;47227;46.752;23.576;2023-02-10T14:37:58;98158.40;;;10.23;26.45
61357;BME280;47227;46.752;23.576;2023-02-10T14:40:29;98157.88;;;10.08;26.93
61357;BME280;47227;46.752;23.576;2023-02-10T14:43:00;98160.55;;;9.78;26.86
61357;BME280;47227;46.752;23.576;2023-02-10T14:45:29;98167.80;;;9.53;27.07
61357;BME280;47227;46.752;23.576;2023-02-10T14:47:59;98168.77;;;9.29;27.66
61357;BME280;47227;46.752;23.576;2023-02-10T14:50:32;98167.98;;;9.27;27.86
61357;BME280;47227;46.752;23.576;2023-02-10T14:53:02;98162.34;;;8.96;28.21
61357;BME280;47227;46.752;23.576;2023-02-10T14:55:35;98156.71;;;8.77;28.59
61357;BME280;47227;46.752;23.576;2023-02-10T14:58:11;98154.30;;;8.32;29.15
61357;BME280;47227;46.752;23.576;2023-02-10T15:00:42;98152.77;;;7.84;29.70
61357;BME280;47227;46.752;23.576;2023-02-10T15:03:21;98155.94;;;7.45;30.29
61357;BME280;47227;46.752;23.576;2023-02-10T15:05:52;98154.17;;;6.61;31.63
61357;BME280;47227;46.752;23.576;2023-02-10T15:08:32;98156.71;;;6.59;31.93
61357;BME280;47227;46.752;23.576;2023-02-10T15:11:04;98151.73;;;6.43;32.07
61357;BME280;47227;46.752;23.576;2023-02-10T15:13:42;98150.80;;;6.29;32.25
61357;BME280;47227;46.752;23.576;2023-02-10T15:16:12;98151.75;;;6.23;32.45
61357;BME280;47227;46.752;23.576;2023-02-10T15:18:45;98151.38;;;6.20;32.36
61357;BME280;47227;46.752;23.576;2023-02-10T15:21:35;98149.90;;;5.97;32.92
61357;BME280;47227;46.752;23.576;2023-02-10T15:24:03;98157.05;;;5.66;33.38
61357;BME280;47227;46.752;23.576;2023-02-10T15:26:35;98158.73;;;5.36;33.74
61357;BME280;47227;46.752;23.576;2023-02-10T15:29:10;98159.46;;;5.01;34.56
61357;BME280;47227;46.752;23.576;2023-02-10T15:31:40;98160.62;;;4.47;35.11
61357;BME280;47227;46.752;23.576;2023-02-10T15:34:17;98161.30;;;3.77;36.06
61357;BME280;47227;46.752;23.576;2023-02-10T15:36:50;98163.09;;;3.15;37.24
61357;BME280;47227;46.752;23.576;2023-02-10T15:39:25;98162.84;;;2.53;38.29
61357;BME280;47227;46.752;23.576;2023-02-10T15:42:00;98164.28;;;2.09;39.38
61357;BME280;47227;46.752;23.576;2023-02-10T15:44:32;98161.27;;;1.62;40.88
61357;BME280;47227;46.752;23.576;2023-02-10T15:47:23;98160.79;;;1.34;41.17
61357;BME280;47227;46.752;23.576;2023-02-10T15:49:55;98158.29;;;1.05;40.96
61357;BME280;47227;46.752;23.576;2023-02-10T15:52:30;98155.14;;;0.79;41.40
61357;BME280;47227;46.752;23.576;2023-02-10T15:55:02;98157.84;;;0.45;43.52
61357;BME280;47227;46.752;23.576;2023-02-10T15:57:31;98162.88;;;0.07;44.72
61357;BME280;47227;46.752;23.576;2023-02-10T15:59:59;98160.64;;;-0.16;45.90
61357;BME280;47227;46.752;23.576;2023-02-10T16:02:27;98165.67;;;-0.35;47.28
61357;BME280;47227;46.752;23.576;2023-02-10T16:04:57;98164.59;;;-0.56;47.89
61357;BME280;47227;46.752;23.576;2023-02-10T16:07:26;98170.50;;;-0.76;48.65
61357;BME280;47227;46.752;23.576;2023-02-10T16:09:55;98167.96;;;-0.93;49.26
61357;BME280;47227;46.752;23.576;2023-02-10T16:12:24;98171.49;;;-1.04;49.28
61357;BME280;47227;46.752;23.576;2023-02-10T16:14:52;98167.94;;;-1.13;48.21
61357;BME280;47227;46.752;23.576;2023-02-10T16:17:24;98163.77;;;-1.25;46.69
61357;BME280;47227;46.752;23.576;2023-02-10T16:19:53;98161.14;;;-1.41;47.43
61357;BME280;47227;46.752;23.576;2023-02-10T16:22:21;98164.59;;;-1.56;47.97